Strona główna
METAR-TAF:

METAR-TAF

Lotnisko :

Port lotniczy Kuantan

Kuantan, Malezja

Szerokość geograficzna: 03-37N, Długość geograficzna: 103-13E, wysokość: 18 m

Aktualna obserwacja pogody

Raport powstał 20 minut temu, godzina 07:00 UTC
Wiatr 10 kt od północny wschód, zmienny między zachodnio-północny zachód i wschodnio-południowy wschód
Temperatura 30°C
Wilgotność 75%
Ciśnienie 1013 hPa
Widzialność 10 km lub więcej
Rozproszone chmury na wysokości 2000 ft

METAR: WMKD 220700Z 04010KT 300V110 9999 SCT020 30/25 Q1013 NOSIG

czas: 15:20 (07:20 UTC)


TAF: brakujący

Obserwacja i prognoza pogody dla ponad 4000 lotnisk (raport METAR i TAF).

Dostępne stacje oznaczono żółtymi i czerwonymi punktami na mapie.

Najedź kursorem aby zobaczyć nazwę stacji.

Kliknij aby zobaczyć obserwacje i prognozy pogody.

Aby zmienić mapę: kliknij na zielony przycisk z czarnym krzyżykiem, aby powiększyć; na zielony przycisk z myślnikiem, aby pomniejszyć; na zielone strzałki, aby przejść do map sąsiednich.


METAR-TAF: